Addicks, Texas
Current Conditions -  °F | °C
As of 1:53 PM on Friday 31 Oct 2014 (Local Time) from KSGR Reporting Station
Clear Clear  
Wind Chill: 78°   Ceiling: Unl
Heat Index: 78°   Visibility: 10mi
Dew Point: 44°   Wind: 12mph
Humidity: 30%   Direction: 340°NNW
Pressure: 30.16"   Gusts: 21mph
Location:  29.7757°N, 95.6037°W
Report Text: KSGR 311853Z 34010G18KT 10SM CLR 26/07 A3016 RMK AO2 SLP215 T02560067
Loading
Personal Weather Stations






























Interactive Weather Map
Tropical Storm Tracking
New forecast layout! Learn more

10-Day Weather Forecast

Advertisements
Track Severe Weather on mobile